Flugplatz Hohenems (LOIH)

Hier findest Du alle Informationen zum Flugplatz Hohenems (LOIH).

Informationen für Piloten zum Flugplatz Hohenems

Hier findest Du alle relevanten Informationen, die Du als Pilot benötigst, um Hohenems anzufliegen.

Flugplatz: Hohenems ICAO-Code: LOIH
Frequenz Turm: 121,20 Mhz GAFOR Gebiet: -
Frequenz Ground: 121,20 Mhz Mogas: ja
Platzrunde: N 2200 ft Landegebühr: 7.5 €
Platzhöhe: - Sunrise: 04:14 Uhr UTC
Pisten: 05/23 - 630 m x 18 m, ASPH Sunset: 18:37 Uhr UTC

Flugwetter am Flugplatz Hohenems

Die METAR Information stammen aus EDNY (34.77 km entfernt).

METAR Code:
2022/08/10 08:20
EDNY 100820Z 06014KT CAVOK 22/12 Q1022

Flugschulen am Flugplatz Hohenems

Am Flugplatz Hohenems gibt es leider keine Flugschule.

Benachbarte Flugplätze und Flugschulen

Es gibt 5 weitere Flugplätze in einem Umkreis von 50 km um den Flugplatz Hohenems.

Jetzt anmelden

Passwort vergessen

Umfrage Archiv

Sendet Ihr ADS-B und/oder FLARM?

Ja
83.4 %
Nein
16.6 %
Stimmen: 199 | Diskussion
Anzeige: Roland Aircraft
Statistik Alle Mitglieder

Aktuell sind 83 Besucher online, davon 2 Mitglieder und 81 Gäste.


Mitglieder online:
raller  Eldim 

Anzeige: ULPower Aero Engines Anzeige: Pocket FMS